createdAt,value
2022-12-23T00:00:57.274Z,58.97
2022-12-23T00:03:24.111Z,62.28
2022-12-23T00:05:51.039Z,59.35
2022-12-23T00:08:17.404Z,64.90
2022-12-23T00:10:43.733Z,66.13
2022-12-23T00:13:29.348Z,65.30
2022-12-23T00:16:06.600Z,60.88
2022-12-23T00:18:33.144Z,71.63
2022-12-23T00:21:06.651Z,65.78
2022-12-23T00:23:39.279Z,74.22
2022-12-23T00:28:32.029Z,75.15
2022-12-23T00:31:01.340Z,64.30
2022-12-23T00:33:28.953Z,74.13
2022-12-23T00:35:55.310Z,80.57
2022-12-23T00:38:41.728Z,72.25
2022-12-23T00:41:36.952Z,74.65
2022-12-23T00:44:04.018Z,66.60
2022-12-23T00:46:30.603Z,68.60
2022-12-23T00:49:15.390Z,80.05
2022-12-23T00:51:41.752Z,68.95
2022-12-23T00:54:08.065Z,63.38
2022-12-23T00:56:34.455Z,57.40
2022-12-23T00:59:00.807Z,63.03
2022-12-23T01:01:45.692Z,53.38
2022-12-23T01:04:34.485Z,60.00
2022-12-23T01:07:01.126Z,54.75
2022-12-23T01:09:29.641Z,65.85
2022-12-23T01:11:55.935Z,64.45
2022-12-23T01:14:22.558Z,57.75
2022-12-23T01:16:49.073Z,55.78
2022-12-23T01:19:15.433Z,51.88
2022-12-23T01:21:41.879Z,56.85
2022-12-23T01:24:08.583Z,54.03
2022-12-23T01:26:35.445Z,50.55
2022-12-23T01:29:02.005Z,61.28
2022-12-23T01:31:28.623Z,52.65
2022-12-23T01:33:55.282Z,50.05
2022-12-23T01:36:22.396Z,50.30
2022-12-23T01:38:49.112Z,58.05
2022-12-23T01:41:38.179Z,49.85
2022-12-23T01:44:24.970Z,49.00
2022-12-23T01:46:51.577Z,49.88
2022-12-23T01:49:18.378Z,47.47
2022-12-23T01:51:45.348Z,49.67
2022-12-23T01:54:12.100Z,52.83
2022-12-23T01:56:40.175Z,49.35
2022-12-23T01:59:12.081Z,50.63
2022-12-23T02:01:57.819Z,48.47
2022-12-23T02:04:25.495Z,52.03
2022-12-23T02:07:10.505Z,48.05
2022-12-23T02:09:40.548Z,35.95
2022-12-23T02:12:25.988Z,35.97
2022-12-23T02:15:14.481Z,34.80
2022-12-23T02:17:41.558Z,35.08
2022-12-23T02:20:20.613Z,40.75
2022-12-23T02:23:00.627Z,34.17
2022-12-23T02:25:40.391Z,36.57
2022-12-23T02:28:13.336Z,35.47
2022-12-23T02:30:40.108Z,38.25
2022-12-23T02:33:07.151Z,32.72
2022-12-23T02:35:40.890Z,33.85
2022-12-23T02:38:14.210Z,37.63
2022-12-23T02:40:56.105Z,34.03
2022-12-23T02:43:36.667Z,20.70
2022-12-23T02:46:22.653Z,20.52
2022-12-23T02:48:55.675Z,22.10
2022-12-23T02:51:25.205Z,21.45
2022-12-23T02:53:53.569Z,20.98
2022-12-23T02:56:21.786Z,20.05
2022-12-23T02:58:52.620Z,23.17
2022-12-23T03:01:20.071Z,21.25
2022-12-23T03:03:48.662Z,19.25
2022-12-23T03:06:23.502Z,19.85
2022-12-23T03:08:51.323Z,20.73
2022-12-23T03:11:18.371Z,17.67
2022-12-23T03:14:02.375Z,22.23
2022-12-23T03:16:47.508Z,23.08
2022-12-23T03:19:31.725Z,19.67
2022-12-23T03:22:16.897Z,20.33
2022-12-23T03:24:50.463Z,28.13
2022-12-23T03:27:35.818Z,21.45
2022-12-23T03:30:05.244Z,25.88
2022-12-23T03:32:33.839Z,25.88
2022-12-23T03:35:02.796Z,23.67
2022-12-23T03:37:32.973Z,23.45
2022-12-23T03:40:03.561Z,22.90
2022-12-23T03:42:34.244Z,23.45
2022-12-23T03:45:37.016Z,20.75
2022-12-23T03:47:56.040Z,23.00
2022-12-23T03:50:23.841Z,19.38
2022-12-23T03:52:58.272Z,20.88
2022-12-23T03:55:36.309Z,25.05
2022-12-23T03:58:12.151Z,24.20
2022-12-23T04:00:43.882Z,26.98
2022-12-23T04:03:14.956Z,27.30
2022-12-23T04:05:43.118Z,25.38
2022-12-23T04:08:24.719Z,22.92
2022-12-23T04:10:51.758Z,20.48
2022-12-23T04:13:18.947Z,22.77
2022-12-23T04:15:45.714Z,27.38
2022-12-23T04:18:12.954Z,26.17
2022-12-23T04:20:40.160Z,25.35
2022-12-23T04:23:06.706Z,25.30
2022-12-23T04:25:34.759Z,27.77
2022-12-23T04:28:01.948Z,24.85
2022-12-23T04:30:33.917Z,33.67
2022-12-23T04:33:01.334Z,28.38
2022-12-23T04:35:28.239Z,26.50
2022-12-23T04:37:55.146Z,26.48
2022-12-23T04:40:22.354Z,29.80
2022-12-23T04:42:49.249Z,27.63
2022-12-23T04:45:16.134Z,27.42
2022-12-23T04:47:43.687Z,27.42
2022-12-23T04:50:14.676Z,25.65
2022-12-23T04:52:42.513Z,23.08
2022-12-23T04:55:10.439Z,33.08
2022-12-23T04:57:37.482Z,25.60
2022-12-23T05:00:05.032Z,25.50
2022-12-23T05:02:31.607Z,26.42
2022-12-23T05:04:58.871Z,28.10
2022-12-23T05:07:26.080Z,29.40
2022-12-23T05:09:53.368Z,30.45
2022-12-23T05:12:20.367Z,29.50
2022-12-23T05:14:47.548Z,26.77
2022-12-23T05:17:15.331Z,31.08
2022-12-23T05:19:42.243Z,32.22
2022-12-23T05:22:09.867Z,31.95
2022-12-23T05:24:37.048Z,28.17
2022-12-23T05:27:04.558Z,33.42
2022-12-23T05:29:32.376Z,41.47
2022-12-23T05:31:58.788Z,42.25
2022-12-23T05:34:25.314Z,32.00
2022-12-23T05:36:52.266Z,35.10
2022-12-23T05:39:19.569Z,34.90
2022-12-23T05:41:47.335Z,40.65
2022-12-23T05:44:13.672Z,40.17
2022-12-23T05:46:40.972Z,43.88
2022-12-23T05:49:07.548Z,35.10
2022-12-23T05:51:35.015Z,40.47
2022-12-23T05:54:01.686Z,41.97
2022-12-23T05:56:28.779Z,42.38
2022-12-23T05:58:55.553Z,37.15
2022-12-23T06:01:22.281Z,34.42
2022-12-23T06:03:49.597Z,46.47
2022-12-23T06:06:16.777Z,46.25
2022-12-23T06:08:43.722Z,31.40
2022-12-23T06:11:10.896Z,33.75
2022-12-23T06:13:38.371Z,36.67
2022-12-23T06:16:05.097Z,36.00
2022-12-23T06:18:32.232Z,42.17
2022-12-23T06:21:00.746Z,38.00
2022-12-23T06:23:28.121Z,33.58
2022-12-23T06:26:01.183Z,38.78
2022-12-23T06:28:29.727Z,38.80
2022-12-23T06:30:57.261Z,34.78
2022-12-23T06:33:25.237Z,36.53
2022-12-23T06:35:51.948Z,32.47
2022-12-23T06:38:18.971Z,31.60
2022-12-23T06:40:45.331Z,37.38
2022-12-23T06:43:13.371Z,35.78
2022-12-23T06:45:39.918Z,35.67
2022-12-23T06:48:06.683Z,32.08
2022-12-23T06:50:33.040Z,36.42
2022-12-23T06:52:59.660Z,45.13
2022-12-23T06:55:27.005Z,46.50
2022-12-23T06:57:54.200Z,36.30
2022-12-23T07:00:23.310Z,30.95
2022-12-23T07:02:50.143Z,34.28
2022-12-23T07:05:17.343Z,42.78
2022-12-23T07:07:44.863Z,31.13
2022-12-23T07:10:11.671Z,42.97
2022-12-23T07:12:38.170Z,29.52
2022-12-23T07:15:05.404Z,33.13
2022-12-23T07:17:32.868Z,30.48
2022-12-23T07:19:59.178Z,36.03
2022-12-23T07:22:25.926Z,35.20
2022-12-23T07:24:52.242Z,43.90
2022-12-23T07:27:18.552Z,41.13
2022-12-23T07:29:44.939Z,39.92
2022-12-23T07:32:11.358Z,35.88
2022-12-23T07:34:37.790Z,40.95
2022-12-23T07:37:04.154Z,33.20
2022-12-23T07:39:30.612Z,46.70
2022-12-23T07:42:25.056Z,43.88
2022-12-23T07:44:43.235Z,40.65
2022-12-23T07:47:11.139Z,42.78
2022-12-23T07:49:37.638Z,40.72
2022-12-23T07:52:04.029Z,60.30
2022-12-23T07:54:30.409Z,48.40
2022-12-23T07:56:58.094Z,47.80
2022-12-23T07:59:27.599Z,46.92
2022-12-23T08:01:54.074Z,47.05
2022-12-23T08:04:20.666Z,42.95
2022-12-23T08:06:47.119Z,52.70
2022-12-23T08:09:13.433Z,47.95
2022-12-23T08:11:39.718Z,40.00
2022-12-23T08:14:06.878Z,59.80
2022-12-23T08:16:37.883Z,38.20
2022-12-23T08:19:07.999Z,49.47
2022-12-23T08:21:34.343Z,42.83
2022-12-23T08:24:00.701Z,49.88
2022-12-23T08:26:27.298Z,43.65
2022-12-23T08:28:53.653Z,52.67
2022-12-23T08:31:21.713Z,58.25
2022-12-23T08:33:49.804Z,52.03
2022-12-23T08:36:22.788Z,56.45
2022-12-23T08:38:50.533Z,53.28
2022-12-23T08:41:18.677Z,55.92
2022-12-23T08:43:45.394Z,69.30
2022-12-23T08:46:11.872Z,55.25
2022-12-23T08:48:39.649Z,61.42
2022-12-23T08:51:10.760Z,54.67
2022-12-23T08:53:37.611Z,65.75
2022-12-23T08:56:09.317Z,62.92
2022-12-23T08:58:39.341Z,59.70
2022-12-23T09:01:06.883Z,60.25
2022-12-23T09:03:33.612Z,61.97
2022-12-23T09:06:03.595Z,71.35
2022-12-23T09:08:29.911Z,63.77
2022-12-23T09:10:56.281Z,59.22
2022-12-23T09:13:31.007Z,62.00
2022-12-23T09:16:01.386Z,65.13
2022-12-23T09:18:27.776Z,57.40
2022-12-23T09:21:20.086Z,68.55
2022-12-23T09:23:46.897Z,64.03
2022-12-23T09:26:17.837Z,77.85
2022-12-23T09:28:44.144Z,82.28
2022-12-23T09:31:11.233Z,86.60
2022-12-23T09:33:37.993Z,98.43
2022-12-23T09:36:04.656Z,105.90
2022-12-23T09:38:31.321Z,92.38
2022-12-23T09:41:06.475Z,103.65
2022-12-23T09:43:50.888Z,75.78
2022-12-23T09:46:25.559Z,80.03
2022-12-23T09:49:05.870Z,71.35
2022-12-23T09:51:32.758Z,95.45
2022-12-23T09:54:03.283Z,81.25
2022-12-23T09:56:48.254Z,65.50
2022-12-23T09:59:19.970Z,60.55
2022-12-23T10:01:46.356Z,63.55
2022-12-23T10:04:21.852Z,94.10
2022-12-23T10:06:56.230Z,75.38
2022-12-23T10:09:24.330Z,74.03
2022-12-23T10:11:51.870Z,81.88
2022-12-23T10:14:21.211Z,84.72
2022-12-23T10:17:20.056Z,82.72
2022-12-23T10:19:47.987Z,67.70
2022-12-23T10:22:14.325Z,57.83
2022-12-23T10:24:42.747Z,61.30
2022-12-23T10:27:27.680Z,65.78
2022-12-23T10:29:54.086Z,61.90
2022-12-23T10:32:35.777Z,59.22
2022-12-23T10:35:05.224Z,50.95
2022-12-23T10:37:37.669Z,46.10
2022-12-23T10:40:03.978Z,48.58
2022-12-23T10:42:36.251Z,43.58
2022-12-23T10:45:08.083Z,41.78
2022-12-23T10:48:01.954Z,37.95
2022-12-23T10:50:34.252Z,48.35
2022-12-23T10:53:02.503Z,49.95
2022-12-23T10:55:34.100Z,51.03
2022-12-23T10:58:19.381Z,49.17
2022-12-23T11:00:49.233Z,53.72
2022-12-23T11:03:18.058Z,60.15
2022-12-23T11:05:45.578Z,62.58
2022-12-23T11:08:12.181Z,66.15
2022-12-23T11:10:39.165Z,65.35
2022-12-23T11:13:05.501Z,65.68
2022-12-23T11:15:41.507Z,64.50
2022-12-23T11:18:13.982Z,73.78
2022-12-23T11:20:41.231Z,90.72
2022-12-23T11:23:23.779Z,89.45
2022-12-23T11:25:59.162Z,80.65
2022-12-23T11:28:25.697Z,102.70
2022-12-23T11:31:14.303Z,107.43
2022-12-23T11:33:45.754Z,113.13
2022-12-23T11:36:12.041Z,114.70
2022-12-23T11:38:47.920Z,129.45
2022-12-23T11:41:18.142Z,104.78
2022-12-23T11:43:47.758Z,129.77
2022-12-23T11:46:33.281Z,106.93
2022-12-23T11:49:06.912Z,138.73
2022-12-23T11:51:33.388Z,114.82
2022-12-23T11:54:01.179Z,123.30
2022-12-23T11:56:28.517Z,116.03
2022-12-23T11:58:59.794Z,96.50
2022-12-23T12:01:26.313Z,101.32
2022-12-23T12:03:59.380Z,111.32
2022-12-23T12:06:26.723Z,95.53
2022-12-23T12:08:55.638Z,104.85
2022-12-23T12:11:25.790Z,97.20
2022-12-23T12:14:06.344Z,102.38
2022-12-23T12:16:51.690Z,83.72
2022-12-23T12:19:25.142Z,100.45
2022-12-23T12:21:53.644Z,85.65
2022-12-23T12:24:26.129Z,77.07
2022-12-23T12:26:53.741Z,74.80
2022-12-23T12:29:36.507Z,87.95
2022-12-23T12:32:03.851Z,70.78
2022-12-23T12:34:33.782Z,63.47
2022-12-23T12:37:04.308Z,63.90
2022-12-23T12:39:34.310Z,55.53
2022-12-23T12:42:05.739Z,66.15
2022-12-23T12:44:41.156Z,55.35
2022-12-23T12:47:44.591Z,58.88
2022-12-23T12:50:06.723Z,65.38
2022-12-23T12:52:39.046Z,62.25
2022-12-23T12:55:25.798Z,64.78
2022-12-23T12:57:52.262Z,56.83
2022-12-23T13:00:20.196Z,56.90
2022-12-23T13:02:49.668Z,60.38
2022-12-23T13:05:21.273Z,52.17
2022-12-23T13:08:06.160Z,61.58
2022-12-23T13:10:33.041Z,54.90
2022-12-23T13:13:18.545Z,57.63
2022-12-23T13:15:44.818Z,57.58
2022-12-23T13:18:19.289Z,56.40
2022-12-23T13:20:54.046Z,56.38
2022-12-23T13:23:45.156Z,58.10
2022-12-23T13:26:24.527Z,54.88
2022-12-23T13:28:51.333Z,58.30
2022-12-23T13:31:30.386Z,50.15
2022-12-23T13:34:05.444Z,52.65
2022-12-23T13:36:42.175Z,58.60
2022-12-23T13:39:11.570Z,47.10
2022-12-23T13:41:45.843Z,48.58
2022-12-23T13:44:15.475Z,58.15
2022-12-23T13:47:00.674Z,62.45
2022-12-23T13:49:27.692Z,48.60
2022-12-23T13:52:02.806Z,56.90
2022-12-23T13:54:41.874Z,57.45
2022-12-23T13:57:17.698Z,51.13
2022-12-23T13:59:59.752Z,41.45
2022-12-23T14:02:37.331Z,49.67
2022-12-23T14:05:04.750Z,54.92
2022-12-23T14:07:32.590Z,58.90
2022-12-23T14:10:17.986Z,64.32
2022-12-23T14:12:44.323Z,53.30
2022-12-23T14:15:10.632Z,50.30
2022-12-23T14:17:53.418Z,46.05
2022-12-23T14:20:49.195Z,42.78
2022-12-23T14:23:27.270Z,53.55
2022-12-23T14:26:11.329Z,45.28
2022-12-23T14:29:00.715Z,42.45
2022-12-23T14:31:28.550Z,44.90
2022-12-23T14:34:01.869Z,42.63
2022-12-23T14:36:28.635Z,44.15
2022-12-23T14:39:13.200Z,39.75
2022-12-23T14:41:47.935Z,41.10
2022-12-23T14:44:21.549Z,38.40
2022-12-23T14:46:52.450Z,36.03
2022-12-23T14:49:40.098Z,37.58
2022-12-23T14:52:25.855Z,32.88
2022-12-23T14:55:21.054Z,32.13
2022-12-23T14:57:38.497Z,34.03
2022-12-23T15:00:05.591Z,34.35
2022-12-23T15:02:36.695Z,34.80
2022-12-23T15:05:03.783Z,32.28
2022-12-23T15:07:33.115Z,34.25
2022-12-23T15:10:07.440Z,36.28
2022-12-23T15:12:35.939Z,34.13
2022-12-23T15:15:14.127Z,34.85
2022-12-23T15:17:40.436Z,34.97
2022-12-23T15:20:09.620Z,31.50
2022-12-23T15:22:36.479Z,31.85
2022-12-23T15:25:04.326Z,35.83
2022-12-23T15:27:33.334Z,33.10
2022-12-23T15:29:59.811Z,40.05
2022-12-23T15:32:27.247Z,32.70
2022-12-23T15:34:57.169Z,38.90
2022-12-23T15:37:29.024Z,34.73
2022-12-23T15:40:03.408Z,39.33
2022-12-23T15:42:38.205Z,40.03
2022-12-23T15:45:22.750Z,39.13
2022-12-23T15:47:49.823Z,40.15
2022-12-23T15:50:17.087Z,32.25
2022-12-23T15:52:44.959Z,34.53
2022-12-23T15:55:15.273Z,32.47
2022-12-23T15:57:49.569Z,37.35
2022-12-23T16:00:21.423Z,38.47
2022-12-23T16:03:00.221Z,31.70
2022-12-23T16:05:31.774Z,36.22
2022-12-23T16:08:12.004Z,37.53
2022-12-23T16:10:38.696Z,29.75
2022-12-23T16:13:05.036Z,40.97
2022-12-23T16:15:32.443Z,36.25
2022-12-23T16:18:25.658Z,36.97
2022-12-23T16:20:53.697Z,54.78
2022-12-23T16:23:20.713Z,52.55
2022-12-23T16:25:50.365Z,46.35
2022-12-23T16:28:22.851Z,44.90
2022-12-23T16:30:51.540Z,41.33
2022-12-23T16:33:20.695Z,39.15
2022-12-23T16:35:47.081Z,37.72
2022-12-23T16:38:23.853Z,33.90
2022-12-23T16:40:51.741Z,36.55
2022-12-23T16:43:18.755Z,49.05
2022-12-23T16:45:45.642Z,40.80
2022-12-23T16:48:30.784Z,49.08
2022-12-23T16:50:57.891Z,48.70
2022-12-23T16:53:24.304Z,46.67
2022-12-23T16:55:55.265Z,44.50
2022-12-23T16:58:24.784Z,52.03
2022-12-23T17:00:51.526Z,38.17
2022-12-23T17:03:19.038Z,36.53
2022-12-23T17:05:46.139Z,37.95
2022-12-23T17:08:12.754Z,33.75
2022-12-23T17:10:39.681Z,45.67
2022-12-23T17:13:06.011Z,48.30
2022-12-23T17:15:32.334Z,39.10
2022-12-23T17:17:58.650Z,39.22
2022-12-23T17:20:25.018Z,33.80
2022-12-23T17:22:53.436Z,29.63
2022-12-23T17:25:26.774Z,27.88
2022-12-23T17:27:55.459Z,31.60
2022-12-23T17:30:23.002Z,35.45
2022-12-23T17:32:55.289Z,36.70
2022-12-23T17:35:21.789Z,42.88
2022-12-23T17:37:48.373Z,43.45
2022-12-23T17:40:15.621Z,40.92
2022-12-23T17:42:42.543Z,45.75
2022-12-23T17:45:37.423Z,59.78
2022-12-23T17:48:03.852Z,48.92
2022-12-23T17:50:30.910Z,54.28
2022-12-23T17:52:57.255Z,56.33
2022-12-23T17:55:24.421Z,54.63
2022-12-23T17:57:51.635Z,77.70
2022-12-23T18:00:25.304Z,83.47
2022-12-23T18:02:58.078Z,55.40
2022-12-23T18:05:26.051Z,46.45
2022-12-23T18:07:53.059Z,51.78
2022-12-23T18:10:21.329Z,41.25
2022-12-23T18:12:49.442Z,43.20
2022-12-23T18:15:20.271Z,52.25
2022-12-23T18:20:17.977Z,43.50
2022-12-23T18:22:45.942Z,56.15
2022-12-23T18:25:16.734Z,40.30
2022-12-23T18:27:43.278Z,58.08
2022-12-23T18:30:09.825Z,49.80
2022-12-23T18:32:36.147Z,56.45
2022-12-23T18:35:04.116Z,61.88
2022-12-23T18:37:30.636Z,49.08
2022-12-23T18:39:56.974Z,55.53
2022-12-23T18:42:23.300Z,58.22
2022-12-23T18:44:49.676Z,51.22
2022-12-23T18:47:16.017Z,57.55
2022-12-23T18:49:42.416Z,57.80
2022-12-23T18:52:12.531Z,55.13
2022-12-23T18:54:39.782Z,56.40
2022-12-23T18:57:06.179Z,51.53
2022-12-23T18:59:34.217Z,63.33
2022-12-23T19:02:00.773Z,52.17
2022-12-23T19:04:27.285Z,66.13
2022-12-23T19:06:54.257Z,52.28
2022-12-23T19:09:21.715Z,38.33
2022-12-23T19:11:48.961Z,52.05
2022-12-23T19:14:29.230Z,56.10
2022-12-23T19:16:55.933Z,49.10
2022-12-23T19:19:22.535Z,49.88
2022-12-23T19:21:49.038Z,44.55
2022-12-23T19:24:15.388Z,46.28
2022-12-23T19:26:41.803Z,49.03
2022-12-23T19:29:08.279Z,48.92
2022-12-23T19:31:34.648Z,45.28
2022-12-23T19:34:01.594Z,48.28
2022-12-23T19:36:28.092Z,39.70
2022-12-23T19:38:55.610Z,36.78
2022-12-23T19:41:21.919Z,53.10
2022-12-23T19:43:48.264Z,50.63
2022-12-23T19:46:15.287Z,42.35
2022-12-23T19:48:41.719Z,44.45
2022-12-23T19:51:09.740Z,47.97
2022-12-23T19:53:36.823Z,46.63
2022-12-23T19:56:15.959Z,42.08
2022-12-23T19:58:43.749Z,33.45
2022-12-23T20:01:17.877Z,51.10
2022-12-23T20:03:45.468Z,48.35
2022-12-23T20:06:15.032Z,70.47
2022-12-23T20:08:42.702Z,56.35
2022-12-23T20:11:13.037Z,44.17
2022-12-23T20:13:39.365Z,56.40
2022-12-23T20:16:06.591Z,46.42
2022-12-23T20:18:33.111Z,47.10
2022-12-23T20:21:00.891Z,52.95
2022-12-23T20:23:28.584Z,56.83
2022-12-23T20:25:55.138Z,75.70
2022-12-23T20:28:21.565Z,50.33
2022-12-23T20:30:48.339Z,33.22
2022-12-23T20:33:15.639Z,42.20
2022-12-23T20:35:42.034Z,30.38
2022-12-23T20:38:08.461Z,32.25
2022-12-23T20:40:34.795Z,30.67
2022-12-23T20:43:01.121Z,30.77
2022-12-23T20:45:28.915Z,33.53
2022-12-23T20:47:55.523Z,22.25
2022-12-23T20:50:22.483Z,23.95
2022-12-23T20:52:48.750Z,22.92
2022-12-23T20:55:15.423Z,27.35
2022-12-23T20:57:44.201Z,25.48
2022-12-23T21:00:10.892Z,31.70
2022-12-23T21:02:37.517Z,28.83
2022-12-23T21:05:03.985Z,30.02
2022-12-23T21:07:30.382Z,35.38
2022-12-23T21:09:56.725Z,33.83
2022-12-23T21:12:23.740Z,33.08
2022-12-23T21:14:50.209Z,33.45
2022-12-23T21:17:17.924Z,25.63
2022-12-23T21:19:44.885Z,30.27
2022-12-23T21:22:11.301Z,28.02
2022-12-23T21:24:38.186Z,21.83
2022-12-23T21:27:04.708Z,26.58
2022-12-23T21:29:31.228Z,32.60
2022-12-23T21:31:59.228Z,26.80
2022-12-23T21:34:25.900Z,26.48
2022-12-23T21:36:53.423Z,21.67
2022-12-23T21:39:19.929Z,29.20
2022-12-23T21:41:46.332Z,24.13
2022-12-23T21:44:15.784Z,24.42
2022-12-23T21:46:42.269Z,22.05
2022-12-23T21:49:09.598Z,24.70
2022-12-23T21:51:40.779Z,32.08
2022-12-23T21:54:08.375Z,20.95
2022-12-23T21:56:35.136Z,32.70
2022-12-23T21:59:03.738Z,34.55
2022-12-23T22:01:30.745Z,23.92
2022-12-23T22:03:57.238Z,25.50
2022-12-23T22:06:28.344Z,24.05
2022-12-23T22:08:54.923Z,26.15
2022-12-23T22:11:22.946Z,25.10
2022-12-23T22:13:49.557Z,34.63
2022-12-23T22:16:20.815Z,34.45
2022-12-23T22:18:47.787Z,28.95
2022-12-23T22:21:15.993Z,46.45
2022-12-23T22:23:42.803Z,34.78
2022-12-23T22:26:11.870Z,35.97
2022-12-23T22:28:38.779Z,27.63
2022-12-23T22:31:28.325Z,35.60
2022-12-23T22:33:54.714Z,32.15
2022-12-23T22:36:21.072Z,36.15
2022-12-23T22:38:51.843Z,45.33
2022-12-23T22:41:18.293Z,36.72
2022-12-23T22:43:44.697Z,37.03
2022-12-23T22:46:11.148Z,31.55
2022-12-23T22:48:38.011Z,38.03
2022-12-23T22:51:05.279Z,28.58
2022-12-23T22:53:32.273Z,31.58
2022-12-23T22:55:59.484Z,39.30
2022-12-23T22:58:26.675Z,28.42
2022-12-23T23:00:53.795Z,29.70
2022-12-23T23:03:20.279Z,27.52
2022-12-23T23:06:03.952Z,28.92
2022-12-23T23:08:30.707Z,37.17
2022-12-23T23:10:58.119Z,26.52
2022-12-23T23:13:25.179Z,29.58
2022-12-23T23:15:51.474Z,27.77
2022-12-23T23:18:18.236Z,32.85
2022-12-23T23:20:44.908Z,23.17
2022-12-23T23:23:11.381Z,27.02
2022-12-23T23:25:37.802Z,26.20
2022-12-23T23:28:04.360Z,25.33
2022-12-23T23:30:30.954Z,22.77
2022-12-23T23:32:57.260Z,30.70
2022-12-23T23:35:23.731Z,25.90
2022-12-23T23:37:50.147Z,30.00
2022-12-23T23:40:16.479Z,30.73
2022-12-23T23:42:42.892Z,39.25
2022-12-23T23:45:09.456Z,27.05
2022-12-23T23:47:35.859Z,27.60
2022-12-23T23:50:02.599Z,28.90
2022-12-23T23:52:29.159Z,40.35
2022-12-23T23:54:55.572Z,27.95
2022-12-23T23:57:22.152Z,32.95
2022-12-23T23:59:48.572Z,30.65
